Shanghai Express — DPCK — position and weather

sailwx.info

Track history (hours):
 
Tides and Currents Weather Stations Pressure Air Temp Water Temp Dewpoint Dewpoint Depression Visibility Wind Speed Wind Dir Waves Ship Positions

Shanghai Express

Last reported at 2015-Mar-28 18:32 UTC. Time now 2015-Apr-01 22:35 UTC.
Position N 31°57' W 080°39'.

Length 320.6 m; beam 42.8 m; draft 14.5 m.

Type: Ship (hazmat cat A). MMSI: 211367460.

Date/timePositionNaut miles runAvg speedWind from/ knotsBaromVisibWave heightAir tempDewpointWater temp
2015-Mar-28 18:32N 31°57' W 080°39'1110.9
2015-Mar-28 17:33N 32°02' W 080°50'9 9.0
2015-Mar-28 16:33N 32°06' W 080°60'5 5.0
2015-Mar-28 15:33N 32°05' W 081°06'3 3.1
2015-Mar-28 14:31N 32°08' W 081°08'0 0.0
2015-Mar-28 13:33N 32°08' W 081°08'0 0.0
2015-Mar-28 12:33N 32°08' W 081°08'0 0.0
2015-Mar-28 11:29N 32°08' W 081°08'0 0.0
2015-Mar-28 10:32N 32°08' W 081°08'0 0.0
2015-Mar-28 09:31N 32°08' W 081°08'0 0.0
2015-Mar-28 08:31N 32°08' W 081°08'0 0.0
2015-Mar-28 07:32N 32°08' W 081°08'0 0.0
2015-Mar-28 06:32N 32°08' W 081°08'0 0.0
2015-Mar-28 05:31N 32°08' W 081°08'0 0.0
2015-Mar-28 04:31N 32°08' W 081°08'0 0.0
2015-Mar-28 03:31N 32°08' W 081°08'0 0.0
2015-Mar-28 02:33N 32°08' W 081°08'0 0.0
2015-Mar-28 01:33N 32°08' W 081°08'0 0.0
2015-Mar-28 00:29N 32°08' W 081°08'0 0.0
2015-Mar-27 23:32N 32°08' W 081°08'0 0.0
2015-Mar-27 22:31N 32°08' W 081°08'0 0.0
2015-Mar-27 21:31N 32°08' W 081°08'0 0.0
2015-Mar-27 20:34N 32°08' W 081°08'0 0.0
2015-Mar-27 19:30N 32°08' W 081°08'0 0.0
2015-Mar-27 18:33N 32°08' W 081°08'0 0.0
2015-Mar-27 17:32N 32°08' W 081°08'0 0.1
2015-Mar-27 16:33N 32°08' W 081°08'3 3.4
2015-Mar-27 15:33N 32°05' W 081°06'9 8.5
2015-Mar-27 14:33N 32°03' W 080°56'1211.9
2015-Mar-27 13:33N 31°58' W 080°43'7 6.5
2015-Mar-27 12:33N 31°56' W 080°36'1 1.2
2015-Mar-27 11:32N 31°56' W 080°34'0 0.0
2015-Mar-27 10:32N 31°56' W 080°34'0 0.0
2015-Mar-27 08:16N 31°56' W 080°34'0 0.0
2015-Mar-27 07:31N 31°56' W 080°34'0 0.0
2015-Mar-27 06:33N 31°56' W 080°34'0 0.0
2015-Mar-27 05:06N 31°56' W 080°34'0 0.0
2015-Mar-27 00:31N 31°56' W 080°34'0 0.1
2015-Mar-26 23:33N 31°56' W 080°34'8 8.3
2015-Mar-26 22:33N 31°58' W 080°25'1312.3
2015-Mar-26 21:30N 31°60' W 080°10'1616.5
2015-Mar-26 20:33N 32°02' W 079°51'1616.3
2015-Mar-26 19:33N 32°09' W 079°34'1716.5
2015-Mar-26 18:31N 32°19' W 079°17'48016.5
2015-Mar-25 13:32N 39°03' W 074°00'1818.9
2015-Mar-25 12:34N 39°21' W 073°55'1918.9
2015-Mar-25 11:33N 39°40' W 073°53'1919.0
2015-Mar-25 10:33N 39°59' W 073°51'1414.3
2015-Mar-25 09:33N 40°13' W 073°49'10 9.8
2015-Mar-25 08:33N 40°23' W 073°48'8 7.7
2015-Mar-25 07:33N 40°29' W 073°55'1312.6
2015-Mar-25 06:33N 40°39' W 074°05'3 3.1
2015-Mar-25 05:33N 40°40' W 074°08'0 0.0
2015-Mar-25 04:32N 40°40' W 074°08'0 0.0
2015-Mar-25 03:31N 40°40' W 074°08'0 0.0
2015-Mar-25 02:31N 40°40' W 074°08'0 0.0
2015-Mar-25 01:33N 40°40' W 074°08'0 0.0
2015-Mar-25 00:33N 40°40' W 074°08'0 0.0
2015-Mar-24 23:29N 40°40' W 074°08'0 0.0
2015-Mar-24 22:32N 40°40' W 074°08'0 0.0
2015-Mar-24 21:29N 40°40' W 074°08'0 0.0
2015-Mar-24 20:28N 40°40' W 074°08'0 0.0
2015-Mar-24 19:31N 40°40' W 074°08'0 0.0
2015-Mar-24 18:33N 40°40' W 074°08'0 0.0
2015-Mar-24 17:33N 40°40' W 074°08'0 0.0
2015-Mar-24 16:32N 40°40' W 074°08'0 0.0
2015-Mar-24 15:32N 40°40' W 074°08'0 0.0
2015-Mar-24 14:31N 40°40' W 074°08'0 0.0
2015-Mar-24 13:31N 40°40' W 074°08'0 0.0
2015-Mar-24 12:30N 40°40' W 074°08'0 0.0
2015-Mar-24 11:24N 40°40' W 074°08'0 0.0
2015-Mar-24 10:30N 40°40' W 074°08'0 0.0
2015-Mar-24 09:32N 40°40' W 074°08'0 0.0
2015-Mar-24 08:32N 40°40' W 074°08'0 0.0
2015-Mar-24 07:28N 40°40' W 074°08'0 0.0
2015-Mar-24 06:28N 40°40' W 074°08'0 0.0
2015-Mar-24 05:33N 40°40' W 074°08'0 0.0
2015-Mar-24 04:33N 40°40' W 074°08'0 0.0
2015-Mar-24 03:33N 40°40' W 074°08'0 0.0
2015-Mar-24 02:32N 40°40' W 074°08'0 0.0
2015-Mar-24 01:28N 40°40' W 074°08'0 0.0
2015-Mar-24 00:33N 40°40' W 074°08'0 0.0
2015-Mar-23 23:29N 40°40' W 074°08'0 0.0
2015-Mar-23 22:29N 40°40' W 074°08'1 1.0
2015-Mar-23 21:33N 40°39' W 074°09'5 4.8
2015-Mar-23 20:33N 40°37' W 074°03'1010.3
2015-Mar-23 19:33N 40°29' W 073°55'8 7.9
2015-Mar-23 18:33N 40°27' W 073°45'11 9.9
2015-Mar-23 17:25N 40°28' W 073°30'4418.7
2015-Mar-23 15:04N 40°30' W 072°33'1019.8
2015-Mar-23 14:33N 40°31' W 072°19'2019.9
2015-Mar-23 13:33N 40°31' W 071°53'2020.1
2015-Mar-23 12:33N 40°32' W 071°27'8319.6
2015-Mar-23 08:19N 40°33' W 069°37'  
Track history (hours):
 
Tides and Currents Weather Stations Pressure Air Temp Water Temp Dewpoint Dewpoint Depression Visibility Wind Speed Wind Dir Waves Ship Positions

Shanghai Express

Last reported at 2015-Mar-28 18:32 UTC. Time now 2015-Apr-01 22:35 UTC.
Position N 31°57' W 080°39'.

Length 320.6 m; beam 42.8 m; draft 14.5 m.

Type: Ship (hazmat cat A). MMSI: 211367460.

Date/timePositionNaut miles runAvg speedWind from/ knotsBaromVisibWave heightAir tempDewpointWater temp
2015-Mar-28 18:32N 31°57' W 080°39'1110.9
2015-Mar-28 17:33N 32°02' W 080°50'9 9.0
2015-Mar-28 16:33N 32°06' W 080°60'5 5.0
2015-Mar-28 15:33N 32°05' W 081°06'3 3.1
2015-Mar-28 14:31N 32°08' W 081°08'0 0.0
2015-Mar-28 13:33N 32°08' W 081°08'0 0.0
2015-Mar-28 12:33N 32°08' W 081°08'0 0.0
2015-Mar-28 11:29N 32°08' W 081°08'0 0.0
2015-Mar-28 10:32N 32°08' W 081°08'0 0.0
2015-Mar-28 09:31N 32°08' W 081°08'0 0.0
2015-Mar-28 08:31N 32°08' W 081°08'0 0.0
2015-Mar-28 07:32N 32°08' W 081°08'0 0.0
2015-Mar-28 06:32N 32°08' W 081°08'0 0.0
2015-Mar-28 05:31N 32°08' W 081°08'0 0.0
2015-Mar-28 04:31N 32°08' W 081°08'0 0.0
2015-Mar-28 03:31N 32°08' W 081°08'0 0.0
2015-Mar-28 02:33N 32°08' W 081°08'0 0.0
2015-Mar-28 01:33N 32°08' W 081°08'0 0.0
2015-Mar-28 00:29N 32°08' W 081°08'0 0.0
2015-Mar-27 23:32N 32°08' W 081°08'0 0.0
2015-Mar-27 22:31N 32°08' W 081°08'0 0.0
2015-Mar-27 21:31N 32°08' W 081°08'0 0.0
2015-Mar-27 20:34N 32°08' W 081°08'0 0.0
2015-Mar-27 19:30N 32°08' W 081°08'0 0.0
2015-Mar-27 18:33N 32°08' W 081°08'0 0.0
2015-Mar-27 17:32N 32°08' W 081°08'0 0.1
2015-Mar-27 16:33N 32°08' W 081°08'3 3.4
2015-Mar-27 15:33N 32°05' W 081°06'9 8.5
2015-Mar-27 14:33N 32°03' W 080°56'1211.9
2015-Mar-27 13:33N 31°58' W 080°43'7 6.5
2015-Mar-27 12:33N 31°56' W 080°36'1 1.2
2015-Mar-27 11:32N 31°56' W 080°34'0 0.0
2015-Mar-27 10:32N 31°56' W 080°34'0 0.0
2015-Mar-27 08:16N 31°56' W 080°34'0 0.0
2015-Mar-27 07:31N 31°56' W 080°34'0 0.0
2015-Mar-27 06:33N 31°56' W 080°34'0 0.0
2015-Mar-27 05:06N 31°56' W 080°34'0 0.0
2015-Mar-27 00:31N 31°56' W 080°34'0 0.1
2015-Mar-26 23:33N 31°56' W 080°34'8 8.3
2015-Mar-26 22:33N 31°58' W 080°25'1312.3
2015-Mar-26 21:30N 31°60' W 080°10'1616.5
2015-Mar-26 20:33N 32°02' W 079°51'1616.3
2015-Mar-26 19:33N 32°09' W 079°34'1716.5
2015-Mar-26 18:31N 32°19' W 079°17'48016.5
2015-Mar-25 13:32N 39°03' W 074°00'1818.9
2015-Mar-25 12:34N 39°21' W 073°55'1918.9
2015-Mar-25 11:33N 39°40' W 073°53'1919.0
2015-Mar-25 10:33N 39°59' W 073°51'1414.3
2015-Mar-25 09:33N 40°13' W 073°49'10 9.8
2015-Mar-25 08:33N 40°23' W 073°48'8 7.7
2015-Mar-25 07:33N 40°29' W 073°55'1312.6
2015-Mar-25 06:33N 40°39' W 074°05'3 3.1
2015-Mar-25 05:33N 40°40' W 074°08'0 0.0
2015-Mar-25 04:32N 40°40' W 074°08'0 0.0
2015-Mar-25 03:31N 40°40' W 074°08'0 0.0
2015-Mar-25 02:31N 40°40' W 074°08'0 0.0
2015-Mar-25 01:33N 40°40' W 074°08'0 0.0
2015-Mar-25 00:33N 40°40' W 074°08'0 0.0
2015-Mar-24 23:29N 40°40' W 074°08'0 0.0
2015-Mar-24 22:32N 40°40' W 074°08'0 0.0
2015-Mar-24 21:29N 40°40' W 074°08'0 0.0
2015-Mar-24 20:28N 40°40' W 074°08'0 0.0
2015-Mar-24 19:31N 40°40' W 074°08'0 0.0
2015-Mar-24 18:33N 40°40' W 074°08'0 0.0
2015-Mar-24 17:33N 40°40' W 074°08'0 0.0
2015-Mar-24 16:32N 40°40' W 074°08'0 0.0
2015-Mar-24 15:32N 40°40' W 074°08'0 0.0
2015-Mar-24 14:31N 40°40' W 074°08'0 0.0
2015-Mar-24 13:31N 40°40' W 074°08'0 0.0
2015-Mar-24 12:30N 40°40' W 074°08'0 0.0
2015-Mar-24 11:24N 40°40' W 074°08'0 0.0
2015-Mar-24 10:30N 40°40' W 074°08'0 0.0
2015-Mar-24 09:32N 40°40' W 074°08'0 0.0
2015-Mar-24 08:32N 40°40' W 074°08'0 0.0
2015-Mar-24 07:28N 40°40' W 074°08'0 0.0
2015-Mar-24 06:28N 40°40' W 074°08'0 0.0
2015-Mar-24 05:33N 40°40' W 074°08'0 0.0
2015-Mar-24 04:33N 40°40' W 074°08'0 0.0
2015-Mar-24 03:33N 40°40' W 074°08'0 0.0
2015-Mar-24 02:32N 40°40' W 074°08'0 0.0
2015-Mar-24 01:28N 40°40' W 074°08'0 0.0
2015-Mar-24 00:33N 40°40' W 074°08'0 0.0
2015-Mar-23 23:29N 40°40' W 074°08'0 0.0
2015-Mar-23 22:29N 40°40' W 074°08'1 1.0
2015-Mar-23 21:33N 40°39' W 074°09'5 4.8
2015-Mar-23 20:33N 40°37' W 074°03'1010.3
2015-Mar-23 19:33N 40°29' W 073°55'8 7.9
2015-Mar-23 18:33N 40°27' W 073°45'11 9.9
2015-Mar-23 17:25N 40°28' W 073°30'4418.7
2015-Mar-23 15:04N 40°30' W 072°33'1019.8
2015-Mar-23 14:33N 40°31' W 072°19'2019.9
2015-Mar-23 13:33N 40°31' W 071°53'2020.1
2015-Mar-23 12:33N 40°32' W 071°27'8319.6
2015-Mar-23 08:19N 40°33' W 069°37'  

Dump ship's entire track history